sensor_id;sensor_type;location;lat;lon;timestamp;temperature;humidity
34873;DHT22;21084;51.098;14.506;2023-07-29T00:00:32;15.50;99.90
34873;DHT22;21084;51.098;14.506;2023-07-29T00:03:00;15.50;99.90
34873;DHT22;21084;51.098;14.506;2023-07-29T00:05:29;15.50;99.90
34873;DHT22;21084;51.098;14.506;2023-07-29T00:07:57;15.40;99.90
34873;DHT22;21084;51.098;14.506;2023-07-29T00:10:26;15.40;99.90
34873;DHT22;21084;51.098;14.506;2023-07-29T00:12:55;15.40;99.90
34873;DHT22;21084;51.098;14.506;2023-07-29T00:15:25;15.30;99.90
34873;DHT22;21084;51.098;14.506;2023-07-29T00:17:53;15.30;99.90
34873;DHT22;21084;51.098;14.506;2023-07-29T00:20:22;15.30;99.90
34873;DHT22;21084;51.098;14.506;2023-07-29T00:22:50;15.20;99.90
34873;DHT22;21084;51.098;14.506;2023-07-29T00:25:21;15.20;99.90
34873;DHT22;21084;51.098;14.506;2023-07-29T00:27:49;15.10;99.90
34873;DHT22;21084;51.098;14.506;2023-07-29T00:30:17;15.10;99.90
34873;DHT22;21084;51.098;14.506;2023-07-29T00:32:47;15.10;99.90
34873;DHT22;21084;51.098;14.506;2023-07-29T00:35:16;15.00;99.90
34873;DHT22;21084;51.098;14.506;2023-07-29T00:37:44;15.00;99.90
34873;DHT22;21084;51.098;14.506;2023-07-29T00:40:14;15.00;99.90
34873;DHT22;21084;51.098;14.506;2023-07-29T00:42:43;14.90;99.90
34873;DHT22;21084;51.098;14.506;2023-07-29T00:45:12;14.90;99.90
34873;DHT22;21084;51.098;14.506;2023-07-29T00:47:42;14.90;99.90
34873;DHT22;21084;51.098;14.506;2023-07-29T00:50:12;14.90;99.90
34873;DHT22;21084;51.098;14.506;2023-07-29T00:52:41;14.90;99.90
34873;DHT22;21084;51.098;14.506;2023-07-29T00:55:10;14.90;99.90
34873;DHT22;21084;51.098;14.506;2023-07-29T00:57:38;14.90;99.90
34873;DHT22;21084;51.098;14.506;2023-07-29T01:00:08;14.80;99.90
34873;DHT22;21084;51.098;14.506;2023-07-29T01:02:36;14.80;99.90
34873;DHT22;21084;51.098;14.506;2023-07-29T01:05:05;14.80;99.90
34873;DHT22;21084;51.098;14.506;2023-07-29T01:07:36;14.70;99.90
34873;DHT22;21084;51.098;14.506;2023-07-29T01:10:10;14.70;99.90
34873;DHT22;21084;51.098;14.506;2023-07-29T01:12:42;14.70;99.90
34873;DHT22;21084;51.098;14.506;2023-07-29T01:15:13;14.70;99.90
34873;DHT22;21084;51.098;14.506;2023-07-29T01:17:47;14.70;99.90
34873;DHT22;21084;51.098;14.506;2023-07-29T01:20:16;14.70;99.90
34873;DHT22;21084;51.098;14.506;2023-07-29T01:22:48;14.70;99.90
34873;DHT22;21084;51.098;14.506;2023-07-29T01:25:18;14.60;99.90
34873;DHT22;21084;51.098;14.506;2023-07-29T01:27:48;14.60;99.90
34873;DHT22;21084;51.098;14.506;2023-07-29T01:30:18;14.60;99.90
34873;DHT22;21084;51.098;14.506;2023-07-29T01:32:48;14.60;99.90
34873;DHT22;21084;51.098;14.506;2023-07-29T01:35:22;14.60;99.90
34873;DHT22;21084;51.098;14.506;2023-07-29T01:37:52;14.60;99.90
34873;DHT22;21084;51.098;14.506;2023-07-29T01:40:24;14.50;99.90
34873;DHT22;21084;51.098;14.506;2023-07-29T01:42:54;14.50;99.90
34873;DHT22;21084;51.098;14.506;2023-07-29T01:45:23;14.50;99.90
34873;DHT22;21084;51.098;14.506;2023-07-29T01:47:52;14.50;99.90
34873;DHT22;21084;51.098;14.506;2023-07-29T01:50:21;14.40;99.90
34873;DHT22;21084;51.098;14.506;2023-07-29T01:52:49;14.50;99.90
34873;DHT22;21084;51.098;14.506;2023-07-29T01:55:17;14.60;99.90
34873;DHT22;21084;51.098;14.506;2023-07-29T01:57:47;14.50;99.90
34873;DHT22;21084;51.098;14.506;2023-07-29T02:00:15;14.60;99.90
34873;DHT22;21084;51.098;14.506;2023-07-29T02:02:44;14.60;99.90
34873;DHT22;21084;51.098;14.506;2023-07-29T02:05:12;14.60;99.90
34873;DHT22;21084;51.098;14.506;2023-07-29T02:07:40;14.70;99.90
34873;DHT22;21084;51.098;14.506;2023-07-29T02:10:09;14.70;99.90
34873;DHT22;21084;51.098;14.506;2023-07-29T02:12:37;14.60;99.90
34873;DHT22;21084;51.098;14.506;2023-07-29T02:15:08;14.70;99.90
34873;DHT22;21084;51.098;14.506;2023-07-29T02:17:36;14.70;99.90
34873;DHT22;21084;51.098;14.506;2023-07-29T02:20:05;14.70;99.90
34873;DHT22;21084;51.098;14.506;2023-07-29T02:22:34;14.70;99.90
34873;DHT22;21084;51.098;14.506;2023-07-29T02:25:03;14.70;99.90
34873;DHT22;21084;51.098;14.506;2023-07-29T02:27:31;14.70;99.90
34873;DHT22;21084;51.098;14.506;2023-07-29T02:30:00;14.60;99.90
34873;DHT22;21084;51.098;14.506;2023-07-29T02:32:30;14.50;99.90
34873;DHT22;21084;51.098;14.506;2023-07-29T02:34:59;14.50;99.90
34873;DHT22;21084;51.098;14.506;2023-07-29T02:37:27;14.40;99.90
34873;DHT22;21084;51.098;14.506;2023-07-29T02:39:56;14.40;99.90
34873;DHT22;21084;51.098;14.506;2023-07-29T02:42:24;14.40;99.90
34873;DHT22;21084;51.098;14.506;2023-07-29T02:44:52;14.30;99.90
34873;DHT22;21084;51.098;14.506;2023-07-29T02:47:21;14.30;99.90
34873;DHT22;21084;51.098;14.506;2023-07-29T02:49:51;14.30;99.90
34873;DHT22;21084;51.098;14.506;2023-07-29T02:52:19;14.30;99.90
34873;DHT22;21084;51.098;14.506;2023-07-29T02:54:47;14.30;99.90
34873;DHT22;21084;51.098;14.506;2023-07-29T02:57:15;14.30;99.90
34873;DHT22;21084;51.098;14.506;2023-07-29T02:59:44;14.30;99.90
34873;DHT22;21084;51.098;14.506;2023-07-29T03:02:12;14.30;99.90
34873;DHT22;21084;51.098;14.506;2023-07-29T03:04:43;14.20;99.90
34873;DHT22;21084;51.098;14.506;2023-07-29T03:07:13;14.20;99.90
34873;DHT22;21084;51.098;14.506;2023-07-29T03:09:43;14.20;99.90
34873;DHT22;21084;51.098;14.506;2023-07-29T03:12:12;14.20;99.90
34873;DHT22;21084;51.098;14.506;2023-07-29T03:14:40;14.20;99.90
34873;DHT22;21084;51.098;14.506;2023-07-29T03:17:09;14.20;99.90
34873;DHT22;21084;51.098;14.506;2023-07-29T03:19:37;14.20;99.90
34873;DHT22;21084;51.098;14.506;2023-07-29T03:22:06;14.30;99.90
34873;DHT22;21084;51.098;14.506;2023-07-29T03:24:36;14.30;99.90
34873;DHT22;21084;51.098;14.506;2023-07-29T03:27:04;14.40;99.90
34873;DHT22;21084;51.098;14.506;2023-07-29T03:29:33;14.50;99.90
34873;DHT22;21084;51.098;14.506;2023-07-29T03:32:02;14.50;99.90
34873;DHT22;21084;51.098;14.506;2023-07-29T03:34:30;14.60;99.90
34873;DHT22;21084;51.098;14.506;2023-07-29T03:37:00;14.70;99.90
34873;DHT22;21084;51.098;14.506;2023-07-29T03:39:28;14.70;99.90
34873;DHT22;21084;51.098;14.506;2023-07-29T03:41:58;14.80;99.90
34873;DHT22;21084;51.098;14.506;2023-07-29T03:44:26;14.90;99.90
34873;DHT22;21084;51.098;14.506;2023-07-29T03:46:54;15.00;99.90
34873;DHT22;21084;51.098;14.506;2023-07-29T03:49:23;15.10;99.90
34873;DHT22;21084;51.098;14.506;2023-07-29T03:51:51;15.10;99.90
34873;DHT22;21084;51.098;14.506;2023-07-29T03:54:20;15.20;99.90
34873;DHT22;21084;51.098;14.506;2023-07-29T03:56:48;15.20;99.90
34873;DHT22;21084;51.098;14.506;2023-07-29T03:59:18;15.30;99.90
34873;DHT22;21084;51.098;14.506;2023-07-29T04:01:46;15.40;99.90
34873;DHT22;21084;51.098;14.506;2023-07-29T04:04:15;15.40;99.90
34873;DHT22;21084;51.098;14.506;2023-07-29T04:06:43;15.40;99.90
34873;DHT22;21084;51.098;14.506;2023-07-29T04:09:12;15.50;99.90
34873;DHT22;21084;51.098;14.506;2023-07-29T04:11:40;15.60;99.90
34873;DHT22;21084;51.098;14.506;2023-07-29T04:14:09;15.60;99.90
34873;DHT22;21084;51.098;14.506;2023-07-29T04:16:38;15.70;99.90
34873;DHT22;21084;51.098;14.506;2023-07-29T04:19:07;15.80;99.90
34873;DHT22;21084;51.098;14.506;2023-07-29T04:21:35;15.80;99.90
34873;DHT22;21084;51.098;14.506;2023-07-29T04:24:03;15.90;99.90
34873;DHT22;21084;51.098;14.506;2023-07-29T04:26:32;16.00;99.90
34873;DHT22;21084;51.098;14.506;2023-07-29T04:29:01;16.10;99.90
34873;DHT22;21084;51.098;14.506;2023-07-29T04:31:29;16.30;99.90
34873;DHT22;21084;51.098;14.506;2023-07-29T04:33:59;16.50;99.90
34873;DHT22;21084;51.098;14.506;2023-07-29T04:36:29;16.60;99.90
34873;DHT22;21084;51.098;14.506;2023-07-29T04:38:57;16.80;99.90
34873;DHT22;21084;51.098;14.506;2023-07-29T04:41:26;16.80;99.90
34873;DHT22;21084;51.098;14.506;2023-07-29T04:43:54;16.90;99.90
34873;DHT22;21084;51.098;14.506;2023-07-29T04:46:23;17.00;99.90
34873;DHT22;21084;51.098;14.506;2023-07-29T04:48:51;17.10;99.90
34873;DHT22;21084;51.098;14.506;2023-07-29T04:51:21;17.30;99.90
34873;DHT22;21084;51.098;14.506;2023-07-29T04:53:50;17.50;99.90
34873;DHT22;21084;51.098;14.506;2023-07-29T04:56:18;17.70;99.90
34873;DHT22;21084;51.098;14.506;2023-07-29T04:58:47;18.10;99.90
34873;DHT22;21084;51.098;14.506;2023-07-29T05:01:15;18.30;99.90
34873;DHT22;21084;51.098;14.506;2023-07-29T05:03:43;18.50;99.90
34873;DHT22;21084;51.098;14.506;2023-07-29T05:06:12;18.70;99.90
34873;DHT22;21084;51.098;14.506;2023-07-29T05:08:42;18.80;99.90
34873;DHT22;21084;51.098;14.506;2023-07-29T05:11:10;19.00;99.90
34873;DHT22;21084;51.098;14.506;2023-07-29T05:13:39;19.00;99.90
34873;DHT22;21084;51.098;14.506;2023-07-29T05:16:07;19.10;99.90
34873;DHT22;21084;51.098;14.506;2023-07-29T05:18:36;19.10;99.90
34873;DHT22;21084;51.098;14.506;2023-07-29T05:21:04;19.20;99.90
34873;DHT22;21084;51.098;14.506;2023-07-29T05:23:33;19.20;99.90
34873;DHT22;21084;51.098;14.506;2023-07-29T05:26:02;19.30;99.90
34873;DHT22;21084;51.098;14.506;2023-07-29T05:28:31;19.60;99.90
34873;DHT22;21084;51.098;14.506;2023-07-29T05:31:00;19.80;99.90
34873;DHT22;21084;51.098;14.506;2023-07-29T05:33:29;19.90;99.90
34873;DHT22;21084;51.098;14.506;2023-07-29T05:35:57;19.90;99.90
34873;DHT22;21084;51.098;14.506;2023-07-29T05:38:26;20.00;99.90
34873;DHT22;21084;51.098;14.506;2023-07-29T05:40:55;20.10;99.90
34873;DHT22;21084;51.098;14.506;2023-07-29T05:43:25;20.30;99.90
34873;DHT22;21084;51.098;14.506;2023-07-29T05:45:53;20.40;99.90
34873;DHT22;21084;51.098;14.506;2023-07-29T05:48:21;20.90;99.90
34873;DHT22;21084;51.098;14.506;2023-07-29T05:50:50;21.30;99.90
34873;DHT22;21084;51.098;14.506;2023-07-29T05:53:18;21.70;99.90
34873;DHT22;21084;51.098;14.506;2023-07-29T05:55:46;21.80;99.90
34873;DHT22;21084;51.098;14.506;2023-07-29T05:58:14;21.70;99.90
34873;DHT22;21084;51.098;14.506;2023-07-29T06:00:44;21.90;99.90
34873;DHT22;21084;51.098;14.506;2023-07-29T06:03:12;22.10;99.90
34873;DHT22;21084;51.098;14.506;2023-07-29T06:05:41;22.60;99.90
34873;DHT22;21084;51.098;14.506;2023-07-29T06:08:09;22.70;99.90
34873;DHT22;21084;51.098;14.506;2023-07-29T06:10:38;23.10;99.90
34873;DHT22;21084;51.098;14.506;2023-07-29T06:13:07;22.90;99.90
34873;DHT22;21084;51.098;14.506;2023-07-29T06:15:35;22.90;99.90
34873;DHT22;21084;51.098;14.506;2023-07-29T06:18:05;22.90;99.90
34873;DHT22;21084;51.098;14.506;2023-07-29T06:20:33;23.50;99.90
34873;DHT22;21084;51.098;14.506;2023-07-29T06:23:02;23.70;99.90
34873;DHT22;21084;51.098;14.506;2023-07-29T06:25:30;23.20;99.90
34873;DHT22;21084;51.098;14.506;2023-07-29T06:27:59;23.30;99.90
34873;DHT22;21084;51.098;14.506;2023-07-29T06:30:27;23.20;99.90
34873;DHT22;21084;51.098;14.506;2023-07-29T06:32:55;23.10;99.90
34873;DHT22;21084;51.098;14.506;2023-07-29T06:35:25;23.10;99.90
34873;DHT22;21084;51.098;14.506;2023-07-29T06:37:54;22.90;99.90
34873;DHT22;21084;51.098;14.506;2023-07-29T06:40:22;22.70;99.90
34873;DHT22;21084;51.098;14.506;2023-07-29T06:42:50;22.60;99.90
34873;DHT22;21084;51.098;14.506;2023-07-29T06:45:18;22.90;99.90
34873;DHT22;21084;51.098;14.506;2023-07-29T06:47:49;23.00;99.90
34873;DHT22;21084;51.098;14.506;2023-07-29T06:50:18;23.00;99.90
34873;DHT22;21084;51.098;14.506;2023-07-29T06:52:48;23.10;99.90
34873;DHT22;21084;51.098;14.506;2023-07-29T06:55:16;23.70;99.90
34873;DHT22;21084;51.098;14.506;2023-07-29T06:57:44;24.10;99.90
34873;DHT22;21084;51.098;14.506;2023-07-29T07:00:12;24.80;99.90
34873;DHT22;21084;51.098;14.506;2023-07-29T07:02:41;25.10;99.70
34873;DHT22;21084;51.098;14.506;2023-07-29T07:05:10;25.10;99.90
34873;DHT22;21084;51.098;14.506;2023-07-29T07:07:38;26.00;99.50
34873;DHT22;21084;51.098;14.506;2023-07-29T07:10:08;25.70;97.50
34873;DHT22;21084;51.098;14.506;2023-07-29T07:12:36;25.40;98.10
34873;DHT22;21084;51.098;14.506;2023-07-29T07:15:05;24.30;98.30
34873;DHT22;21084;51.098;14.506;2023-07-29T07:17:33;24.20;99.40
34873;DHT22;21084;51.098;14.506;2023-07-29T07:20:02;24.10;99.60
34873;DHT22;21084;51.098;14.506;2023-07-29T07:22:31;24.20;99.60
34873;DHT22;21084;51.098;14.506;2023-07-29T07:24:59;24.70;99.70
34873;DHT22;21084;51.098;14.506;2023-07-29T07:27:29;25.50;98.50
34873;DHT22;21084;51.098;14.506;2023-07-29T07:29:57;26.20;96.70
34873;DHT22;21084;51.098;14.506;2023-07-29T07:32:26;26.40;96.20
34873;DHT22;21084;51.098;14.506;2023-07-29T07:34:54;25.30;97.10
34873;DHT22;21084;51.098;14.506;2023-07-29T07:37:22;25.30;97.60
34873;DHT22;21084;51.098;14.506;2023-07-29T07:39:50;24.90;97.80
34873;DHT22;21084;51.098;14.506;2023-07-29T07:42:19;24.80;98.60
34873;DHT22;21084;51.098;14.506;2023-07-29T07:44:48;25.10;98.20
34873;DHT22;21084;51.098;14.506;2023-07-29T07:47:17;25.60;97.30
34873;DHT22;21084;51.098;14.506;2023-07-29T07:49:45;25.60;97.00
34873;DHT22;21084;51.098;14.506;2023-07-29T07:52:16;24.80;97.90
34873;DHT22;21084;51.098;14.506;2023-07-29T07:54:44;24.50;98.40
34873;DHT22;21084;51.098;14.506;2023-07-29T07:57:13;24.30;98.20
34873;DHT22;21084;51.098;14.506;2023-07-29T07:59:41;23.70;98.30
34873;DHT22;21084;51.098;14.506;2023-07-29T08:02:11;23.60;99.50
34873;DHT22;21084;51.098;14.506;2023-07-29T08:04:39;24.10;99.40
34873;DHT22;21084;51.098;14.506;2023-07-29T08:07:08;24.30;98.80
34873;DHT22;21084;51.098;14.506;2023-07-29T08:09:36;24.90;98.10
34873;DHT22;21084;51.098;14.506;2023-07-29T08:12:05;24.90;97.80
34873;DHT22;21084;51.098;14.506;2023-07-29T08:14:33;25.00;98.00
34873;DHT22;21084;51.098;14.506;2023-07-29T08:17:02;25.50;97.30
34873;DHT22;21084;51.098;14.506;2023-07-29T08:19:33;26.40;96.40
34873;DHT22;21084;51.098;14.506;2023-07-29T08:22:02;27.60;95.40
34873;DHT22;21084;51.098;14.506;2023-07-29T08:24:31;28.40;94.00
34873;DHT22;21084;51.098;14.506;2023-07-29T08:26:59;28.40;92.80
34873;DHT22;21084;51.098;14.506;2023-07-29T08:29:28;27.30;93.70
34873;DHT22;21084;51.098;14.506;2023-07-29T08:31:56;27.30;93.90
34873;DHT22;21084;51.098;14.506;2023-07-29T08:34:24;26.80;95.00
34873;DHT22;21084;51.098;14.506;2023-07-29T08:36:54;27.00;94.60
34873;DHT22;21084;51.098;14.506;2023-07-29T08:39:23;27.10;94.50
34873;DHT22;21084;51.098;14.506;2023-07-29T08:41:53;28.90;93.50
34873;DHT22;21084;51.098;14.506;2023-07-29T08:44:22;29.90;91.00
34873;DHT22;21084;51.098;14.506;2023-07-29T08:46:51;30.00;90.40
34873;DHT22;21084;51.098;14.506;2023-07-29T08:49:21;28.60;91.40
34873;DHT22;21084;51.098;14.506;2023-07-29T08:51:50;27.70;91.90
34873;DHT22;21084;51.098;14.506;2023-07-29T08:54:19;27.40;92.70
34873;DHT22;21084;51.098;14.506;2023-07-29T08:56:48;26.60;93.00
34873;DHT22;21084;51.098;14.506;2023-07-29T08:59:17;26.80;93.90
34873;DHT22;21084;51.098;14.506;2023-07-29T09:01:45;26.80;93.50
34873;DHT22;21084;51.098;14.506;2023-07-29T09:04:14;26.60;92.40
34873;DHT22;21084;51.098;14.506;2023-07-29T09:06:43;25.90;93.10
34873;DHT22;21084;51.098;14.506;2023-07-29T09:09:12;25.20;94.30
34873;DHT22;21084;51.098;14.506;2023-07-29T09:11:42;25.20;95.10
34873;DHT22;21084;51.098;14.506;2023-07-29T09:14:11;24.80;95.50
34873;DHT22;21084;51.098;14.506;2023-07-29T09:16:40;24.60;95.40
34873;DHT22;21084;51.098;14.506;2023-07-29T09:19:08;24.60;94.90
34873;DHT22;21084;51.098;14.506;2023-07-29T09:21:38;24.80;95.00
34873;DHT22;21084;51.098;14.506;2023-07-29T09:24:07;25.00;95.10
34873;DHT22;21084;51.098;14.506;2023-07-29T09:26:35;25.70;95.20
34873;DHT22;21084;51.098;14.506;2023-07-29T09:29:06;26.50;94.00
34873;DHT22;21084;51.098;14.506;2023-07-29T09:31:34;27.60;93.10
34873;DHT22;21084;51.098;14.506;2023-07-29T09:34:03;27.50;92.10
34873;DHT22;21084;51.098;14.506;2023-07-29T09:36:33;27.40;91.50
34873;DHT22;21084;51.098;14.506;2023-07-29T09:39:03;27.20;92.20
34873;DHT22;21084;51.098;14.506;2023-07-29T09:41:31;27.30;91.40
34873;DHT22;21084;51.098;14.506;2023-07-29T09:44:00;27.60;90.80
34873;DHT22;21084;51.098;14.506;2023-07-29T09:46:33;27.50;91.00
34873;DHT22;21084;51.098;14.506;2023-07-29T09:49:03;27.00;91.10
34873;DHT22;21084;51.098;14.506;2023-07-29T09:51:31;26.70;92.00
34873;DHT22;21084;51.098;14.506;2023-07-29T09:54:01;26.20;91.90
34873;DHT22;21084;51.098;14.506;2023-07-29T09:56:30;25.70;93.20
34873;DHT22;21084;51.098;14.506;2023-07-29T09:58:59;24.90;93.30
34873;DHT22;21084;51.098;14.506;2023-07-29T10:01:33;24.40;94.00
34873;DHT22;21084;51.098;14.506;2023-07-29T10:04:04;24.50;94.20
34873;DHT22;21084;51.098;14.506;2023-07-29T10:06:36;24.60;93.90
34873;DHT22;21084;51.098;14.506;2023-07-29T10:09:07;24.60;94.60
34873;DHT22;21084;51.098;14.506;2023-07-29T10:11:36;24.70;94.40
34873;DHT22;21084;51.098;14.506;2023-07-29T10:14:05;24.50;95.00
34873;DHT22;21084;51.098;14.506;2023-07-29T10:16:37;24.80;93.90
34873;DHT22;21084;51.098;14.506;2023-07-29T10:19:08;25.20;94.30
34873;DHT22;21084;51.098;14.506;2023-07-29T10:21:38;25.60;93.50
34873;DHT22;21084;51.098;14.506;2023-07-29T10:24:09;25.70;93.00
34873;DHT22;21084;51.098;14.506;2023-07-29T10:26:39;25.40;92.60
34873;DHT22;21084;51.098;14.506;2023-07-29T10:29:11;25.40;93.50
34873;DHT22;21084;51.098;14.506;2023-07-29T10:31:42;26.00;93.10
34873;DHT22;21084;51.098;14.506;2023-07-29T10:34:11;26.70;92.20
34873;DHT22;21084;51.098;14.506;2023-07-29T10:36:40;27.00;91.00
34873;DHT22;21084;51.098;14.506;2023-07-29T10:39:10;26.90;92.20
34873;DHT22;21084;51.098;14.506;2023-07-29T10:41:54;27.60;91.30
34873;DHT22;21084;51.098;14.506;2023-07-29T10:47:12;28.10;88.80
34873;DHT22;21084;51.098;14.506;2023-07-29T10:49:40;28.00;90.10
34873;DHT22;21084;51.098;14.506;2023-07-29T10:52:11;28.50;89.50
34873;DHT22;21084;51.098;14.506;2023-07-29T10:54:41;29.00;88.80
34873;DHT22;21084;51.098;14.506;2023-07-29T10:57:13;28.70;86.80
34873;DHT22;21084;51.098;14.506;2023-07-29T10:59:53;27.50;88.50
34873;DHT22;21084;51.098;14.506;2023-07-29T11:02:28;27.10;91.00
34873;DHT22;21084;51.098;14.506;2023-07-29T11:04:56;26.20;91.10
34873;DHT22;21084;51.098;14.506;2023-07-29T11:07:25;25.70;91.40
34873;DHT22;21084;51.098;14.506;2023-07-29T11:10:01;25.60;92.40
34873;DHT22;21084;51.098;14.506;2023-07-29T11:12:38;25.80;92.80
34873;DHT22;21084;51.098;14.506;2023-07-29T11:15:14;26.00;92.00
34873;DHT22;21084;51.098;14.506;2023-07-29T11:17:46;26.00;91.80
34873;DHT22;21084;51.098;14.506;2023-07-29T11:20:15;25.70;92.20
34873;DHT22;21084;51.098;14.506;2023-07-29T11:22:43;25.60;92.20
34873;DHT22;21084;51.098;14.506;2023-07-29T11:25:12;25.70;92.80
34873;DHT22;21084;51.098;14.506;2023-07-29T11:27:40;25.90;92.50
34873;DHT22;21084;51.098;14.506;2023-07-29T11:30:09;26.00;92.50
34873;DHT22;21084;51.098;14.506;2023-07-29T11:32:39;26.30;92.20
34873;DHT22;21084;51.098;14.506;2023-07-29T11:35:10;26.20;91.40
34873;DHT22;21084;51.098;14.506;2023-07-29T11:37:39;26.00;91.70
34873;DHT22;21084;51.098;14.506;2023-07-29T11:40:08;26.10;92.00
34873;DHT22;21084;51.098;14.506;2023-07-29T11:42:37;26.10;91.50
34873;DHT22;21084;51.098;14.506;2023-07-29T11:45:06;26.10;92.40
34873;DHT22;21084;51.098;14.506;2023-07-29T11:47:35;26.10;91.70
34873;DHT22;21084;51.098;14.506;2023-07-29T11:50:05;25.30;92.00
34873;DHT22;21084;51.098;14.506;2023-07-29T11:52:35;25.00;93.30
34873;DHT22;21084;51.098;14.506;2023-07-29T11:55:05;24.80;93.00
34873;DHT22;21084;51.098;14.506;2023-07-29T11:57:34;24.50;93.40
34873;DHT22;21084;51.098;14.506;2023-07-29T12:00:03;24.30;94.10
34873;DHT22;21084;51.098;14.506;2023-07-29T12:02:32;23.90;94.90
34873;DHT22;21084;51.098;14.506;2023-07-29T12:05:01;23.40;96.30
34873;DHT22;21084;51.098;14.506;2023-07-29T12:07:31;22.90;97.50
34873;DHT22;21084;51.098;14.506;2023-07-29T12:10:02;22.40;98.90
34873;DHT22;21084;51.098;14.506;2023-07-29T12:12:30;21.70;99.90
34873;DHT22;21084;51.098;14.506;2023-07-29T12:14:59;20.80;99.90
34873;DHT22;21084;51.098;14.506;2023-07-29T12:17:27;20.00;99.90
34873;DHT22;21084;51.098;14.506;2023-07-29T12:19:56;19.70;99.90
34873;DHT22;21084;51.098;14.506;2023-07-29T12:22:24;19.50;99.90
34873;DHT22;21084;51.098;14.506;2023-07-29T12:24:52;19.60;99.90
34873;DHT22;21084;51.098;14.506;2023-07-29T12:27:22;19.70;99.90
34873;DHT22;21084;51.098;14.506;2023-07-29T12:29:51;19.80;99.90
34873;DHT22;21084;51.098;14.506;2023-07-29T12:32:19;19.80;99.90
34873;DHT22;21084;51.098;14.506;2023-07-29T12:34:48;20.00;99.90
34873;DHT22;21084;51.098;14.506;2023-07-29T12:37:16;20.40;99.90
34873;DHT22;21084;51.098;14.506;2023-07-29T12:39:44;20.80;99.90
34873;DHT22;21084;51.098;14.506;2023-07-29T12:42:12;21.10;99.90
34873;DHT22;21084;51.098;14.506;2023-07-29T12:44:42;21.60;99.90
34873;DHT22;21084;51.098;14.506;2023-07-29T12:47:10;22.10;99.90
34873;DHT22;21084;51.098;14.506;2023-07-29T12:49:38;22.40;99.90
34873;DHT22;21084;51.098;14.506;2023-07-29T12:52:07;22.70;99.90
34873;DHT22;21084;51.098;14.506;2023-07-29T12:54:35;22.80;99.90
34873;DHT22;21084;51.098;14.506;2023-07-29T12:57:04;22.90;99.90
34873;DHT22;21084;51.098;14.506;2023-07-29T12:59:32;22.70;99.90
34873;DHT22;21084;51.098;14.506;2023-07-29T13:02:01;22.90;99.90
34873;DHT22;21084;51.098;14.506;2023-07-29T13:04:33;23.10;99.90
34873;DHT22;21084;51.098;14.506;2023-07-29T13:07:01;23.20;99.90
34873;DHT22;21084;51.098;14.506;2023-07-29T13:09:29;23.00;99.90
34873;DHT22;21084;51.098;14.506;2023-07-29T13:11:57;23.00;99.90
34873;DHT22;21084;51.098;14.506;2023-07-29T13:14:26;22.50;99.90
34873;DHT22;21084;51.098;14.506;2023-07-29T13:16:54;22.80;99.90
34873;DHT22;21084;51.098;14.506;2023-07-29T13:19:23;23.20;99.90
34873;DHT22;21084;51.098;14.506;2023-07-29T13:21:52;23.50;99.90
34873;DHT22;21084;51.098;14.506;2023-07-29T13:24:20;23.50;99.90
34873;DHT22;21084;51.098;14.506;2023-07-29T13:26:48;23.80;99.90
34873;DHT22;21084;51.098;14.506;2023-07-29T13:29:16;23.70;99.90
34873;DHT22;21084;51.098;14.506;2023-07-29T13:31:44;23.80;99.90
34873;DHT22;21084;51.098;14.506;2023-07-29T13:34:13;24.00;99.90
34873;DHT22;21084;51.098;14.506;2023-07-29T13:36:42;24.40;99.90
34873;DHT22;21084;51.098;14.506;2023-07-29T13:39:11;24.80;99.90
34873;DHT22;21084;51.098;14.506;2023-07-29T13:41:39;25.50;99.90
34873;DHT22;21084;51.098;14.506;2023-07-29T13:44:07;25.90;99.90
34873;DHT22;21084;51.098;14.506;2023-07-29T13:46:35;25.90;99.90
34873;DHT22;21084;51.098;14.506;2023-07-29T13:49:04;25.70;99.90
34873;DHT22;21084;51.098;14.506;2023-07-29T13:51:32;26.20;99.90
34873;DHT22;21084;51.098;14.506;2023-07-29T13:54:03;25.70;99.70
34873;DHT22;21084;51.098;14.506;2023-07-29T13:56:31;25.70;99.00
34873;DHT22;21084;51.098;14.506;2023-07-29T13:58:59;26.00;99.50
34873;DHT22;21084;51.098;14.506;2023-07-29T14:01:27;26.70;98.10
34873;DHT22;21084;51.098;14.506;2023-07-29T14:03:56;26.50;98.20
34873;DHT22;21084;51.098;14.506;2023-07-29T14:06:24;26.90;97.50
34873;DHT22;21084;51.098;14.506;2023-07-29T14:09:12;27.70;97.60
34873;DHT22;21084;51.098;14.506;2023-07-29T14:11:41;27.90;96.30
34873;DHT22;21084;51.098;14.506;2023-07-29T14:14:09;27.60;97.20
34873;DHT22;21084;51.098;14.506;2023-07-29T14:16:38;27.00;96.30
34873;DHT22;21084;51.098;14.506;2023-07-29T14:19:06;26.40;97.30
34873;DHT22;21084;51.098;14.506;2023-07-29T14:21:35;27.10;98.40
34873;DHT22;21084;51.098;14.506;2023-07-29T14:24:03;28.60;96.50
34873;DHT22;21084;51.098;14.506;2023-07-29T14:26:33;29.50;94.60
34873;DHT22;21084;51.098;14.506;2023-07-29T14:29:01;28.50;95.20
34873;DHT22;21084;51.098;14.506;2023-07-29T14:31:29;28.70;94.00
34873;DHT22;21084;51.098;14.506;2023-07-29T14:33:58;28.00;94.40
34873;DHT22;21084;51.098;14.506;2023-07-29T14:36:26;27.20;94.10
34873;DHT22;21084;51.098;14.506;2023-07-29T14:38:55;26.30;94.90
34873;DHT22;21084;51.098;14.506;2023-07-29T14:41:24;25.50;96.30
34873;DHT22;21084;51.098;14.506;2023-07-29T14:43:54;25.50;96.60
34873;DHT22;21084;51.098;14.506;2023-07-29T14:46:22;25.40;96.60
34873;DHT22;21084;51.098;14.506;2023-07-29T14:48:51;25.00;96.70
34873;DHT22;21084;51.098;14.506;2023-07-29T14:51:19;24.80;97.50
34873;DHT22;21084;51.098;14.506;2023-07-29T14:53:48;25.00;97.70
34873;DHT22;21084;51.098;14.506;2023-07-29T14:56:16;24.80;98.00
34873;DHT22;21084;51.098;14.506;2023-07-29T14:58:46;24.80;98.50
34873;DHT22;21084;51.098;14.506;2023-07-29T15:01:17;24.60;98.60
34873;DHT22;21084;51.098;14.506;2023-07-29T15:03:46;24.70;98.30
34873;DHT22;21084;51.098;14.506;2023-07-29T15:06:14;24.70;97.90
34873;DHT22;21084;51.098;14.506;2023-07-29T15:08:43;25.00;98.20
34873;DHT22;21084;51.098;14.506;2023-07-29T15:11:11;24.80;97.60
34873;DHT22;21084;51.098;14.506;2023-07-29T15:13:39;24.70;98.00
34873;DHT22;21084;51.098;14.506;2023-07-29T15:16:08;24.90;98.40
34873;DHT22;21084;51.098;14.506;2023-07-29T15:18:37;24.70;97.80
34873;DHT22;21084;51.098;14.506;2023-07-29T15:21:06;24.90;97.80
34873;DHT22;21084;51.098;14.506;2023-07-29T15:23:34;25.60;98.10
34873;DHT22;21084;51.098;14.506;2023-07-29T15:26:05;26.50;97.30
34873;DHT22;21084;51.098;14.506;2023-07-29T15:28:34;27.10;97.50